Time;durP1;ratioP1;P1;durP2;ratioP2;P2;SDS_P1;SDS_P2;PMS_P1;PMS_P2;Temp;Humidity;BMP_temperature;BMP_pressure;BME280_temperature;BME280_humidity;BME280_pressure;Samples;Min_cycle;Max_cycle;Signal;HPM_P1;HPM_P2
2021/01/23 00:00:10;;;;;;;73.62;38.50;;;;;;;5.93;67.60;93569.52;1790115;80;21361;-56
2021/01/23 00:02:41;;;;;;;107.35;51.37;;;;;;;5.90;67.49;93573.11;1790118;80;21065;-56
2021/01/23 00:05:11;;;;;;;86.82;44.95;;;;;;;5.78;67.65;93573.93;1790092;80;21527;-56
2021/01/23 00:07:39;;;;;;;97.15;45.52;;;;;;;5.72;67.92;93579.78;1790194;80;21065;-56
2021/01/23 00:10:09;;;;;;;76.30;40.90;;;;;;;5.71;68.20;93593.27;1790143;80;21520;-55
2021/01/23 00:12:37;;;;;;;82.53;42.88;;;;;;;5.68;68.17;93595.52;1790186;80;22255;-57
2021/01/23 00:15:09;;;;;;;150.72;60.92;;;;;;;5.61;68.33;93590.33;1790125;80;21129;-58
2021/01/23 00:17:37;;;;;;;90.80;47.53;;;;;;;5.61;68.51;93588.34;1790552;80;21062;-58
2021/01/23 00:20:07;;;;;;;92.33;49.30;;;;;;;5.66;68.80;93581.56;1790495;80;21128;-57
2021/01/23 00:22:36;;;;;;;85.07;46.25;;;;;;;5.73;68.88;93591.63;1790344;80;21116;-56
2021/01/23 00:25:07;;;;;;;93.40;48.05;;;;;;;5.78;69.04;93603.94;1780803;79;21386;-57
2021/01/23 00:27:35;;;;;;;85.75;47.10;;;;;;;5.81;68.99;93605.81;1764516;80;21168;-56
2021/01/23 00:30:05;;;;;;;83.25;44.45;;;;;;;5.81;69.09;93588.82;1764621;80;21589;-56
2021/01/23 00:32:34;;;;;;;72.20;37.90;;;;;;;5.82;69.24;93584.88;1764757;80;21595;-57
2021/01/23 00:35:05;;;;;;;89.03;45.55;;;;;;;5.88;69.31;93586.44;1764535;80;21117;-56
2021/01/23 00:37:34;;;;;;;109.03;51.02;;;;;;;5.88;69.36;93585.08;1764502;80;21372;-56
2021/01/23 00:40:03;;;;;;;107.12;51.35;;;;;;;5.86;69.39;93583.40;1764562;80;21182;-56
2021/01/23 00:42:32;;;;;;;122.22;56.08;;;;;;;5.82;69.47;93588.23;1764504;80;21156;-55
2021/01/23 00:45:01;;;;;;;119.20;57.60;;;;;;;5.77;69.79;93588.78;1764491;80;21077;-56
2021/01/23 00:47:29;;;;;;;111.37;52.48;;;;;;;5.71;70.19;93606.91;1764631;80;21486;-55
2021/01/23 00:49:58;;;;;;;91.02;49.05;;;;;;;5.69;70.39;93597.81;1764488;81;21201;-56
2021/01/23 00:52:27;;;;;;;76.87;40.70;;;;;;;5.65;70.51;93574.59;1764449;81;21088;-55
2021/01/23 00:54:55;;;;;;;75.55;41.42;;;;;;;5.58;70.67;93578.94;1764521;81;21100;-56
2021/01/23 00:57:24;;;;;;;77.70;39.80;;;;;;;5.54;70.74;93576.92;1764511;80;21113;-56
2021/01/23 00:59:53;;;;;;;146.22;62.62;;;;;;;5.51;71.01;93576.44;1764526;81;21125;-56
2021/01/23 01:02:21;;;;;;;111.80;53.55;;;;;;;5.53;71.10;93587.08;1764639;81;22170;-57
2021/01/23 01:04:50;;;;;;;99.83;48.30;;;;;;;5.54;71.25;93575.55;1764416;80;21106;-56
2021/01/23 01:07:18;;;;;;;89.80;46.45;;;;;;;5.57;71.45;93567.87;1764505;81;21053;-56
2021/01/23 01:09:46;;;;;;;81.50;45.88;;;;;;;5.61;71.57;93583.50;1764503;81;21049;-56
2021/01/23 01:12:15;;;;;;;77.15;42.05;;;;;;;5.68;71.54;93590.06;1764517;81;21148;-56
2021/01/23 01:14:44;;;;;;;57.88;32.67;;;;;;;5.74;71.50;93580.09;1764443;81;21925;-57
2021/01/23 01:17:13;;;;;;;74.87;37.67;;;;;;;5.80;71.28;93571.55;1764431;81;21164;-56
2021/01/23 01:19:42;;;;;;;68.10;36.25;;;;;;;5.77;71.18;93571.05;1764521;81;21164;-57
2021/01/23 01:22:11;;;;;;;72.40;36.88;;;;;;;5.73;71.24;93563.56;1764524;81;21096;-56
2021/01/23 01:24:39;;;;;;;71.37;37.10;;;;;;;5.68;71.28;93566.28;1764347;79;21073;-56
2021/01/23 01:27:07;;;;;;;62.38;34.98;;;;;;;5.67;71.48;93562.63;1764492;80;23523;-57
2021/01/23 01:29:36;;;;;;;79.67;41.30;;;;;;;5.68;71.62;93562.20;1764427;80;21160;-57
2021/01/23 01:32:06;;;;;;;86.15;47.03;;;;;;;5.65;71.60;93569.13;1764507;81;21086;-55
2021/01/23 01:34:35;;;;;;;77.85;42.85;;;;;;;5.60;71.91;93562.27;1764491;80;21128;-55
2021/01/23 01:37:03;;;;;;;77.37;41.92;;;;;;;5.63;71.96;93563.36;1764513;80;21117;-55
2021/01/23 01:39:31;;;;;;;85.65;44.73;;;;;;;5.61;71.78;93556.97;1764614;80;22112;-56
2021/01/23 01:42:03;;;;;;;81.08;43.58;;;;;;;5.54;71.91;93567.37;1764430;81;21089;-56
2021/01/23 01:44:32;;;;;;;77.93;44.13;;;;;;;5.52;72.07;93568.42;1764719;81;21097;-55
2021/01/23 01:47:00;;;;;;;88.45;45.75;;;;;;;5.53;72.12;93561.17;1764571;80;21077;-56
2021/01/23 01:49:29;;;;;;;77.65;43.48;;;;;;;5.53;72.35;93565.84;1764489;81;21092;-55
2021/01/23 01:51:57;;;;;;;91.75;46.35;;;;;;;5.55;72.35;93567.53;1764597;81;22136;-55
2021/01/23 01:54:26;;;;;;;78.10;42.88;;;;;;;5.52;72.17;93565.69;1764652;81;21160;-56
2021/01/23 01:56:54;;;;;;;82.30;46.00;;;;;;;5.44;72.39;93570.63;1764786;81;21104;-57
2021/01/23 01:59:22;;;;;;;76.97;42.20;;;;;;;5.38;72.32;93568.94;1764862;80;21163;-57
2021/01/23 02:01:56;;;;;;;75.08;40.40;;;;;;;5.33;72.52;93572.20;1764683;80;21074;-55
2021/01/23 02:04:38;;;;;;;73.97;39.65;;;;;;;5.33;72.68;93569.48;1764462;80;21193;-56
2021/01/23 02:07:21;;;;;;;65.90;37.88;;;;;;;5.32;72.30;93570.09;1764148;81;21118;-56
2021/01/23 02:10:16;;;;;;;68.95;37.95;;;;;;;5.17;72.11;93557.38;1764702;80;21517;-56
2021/01/23 02:13:28;;;;;;;73.22;39.40;;;;;;;5.04;72.62;93562.70;1764540;81;21132;-56
2021/01/23 02:16:24;;;;;;;81.32;42.85;;;;;;;4.95;73.12;93567.47;1764680;80;21053;-56
2021/01/23 02:19:19;;;;;;;105.07;51.37;;;;;;;4.91;73.30;93560.61;1740862;81;22320;-54
2021/01/23 02:22:15;;;;;;;74.75;40.78;;;;;;;4.84;73.58;93566.30;1764126;81;21100;-56
2021/01/23 02:24:47;;;;;;;90.15;44.33;;;;;;;4.77;73.63;93574.09;1764648;80;21176;-57
2021/01/23 02:28:04;;;;;;;85.05;44.18;;;;;;;4.68;73.75;93572.66;1789734;79;21156;-56
2021/01/23 02:30:41;;;;;;;83.47;45.23;;;;;;;4.61;74.04;93574.22;1790184;80;21203;-56
2021/01/23 02:33:09;;;;;;;94.47;49.03;;;;;;;4.66;74.42;93578.36;1790208;80;21364;-56
2021/01/23 02:35:37;;;;;;;85.30;46.25;;;;;;;4.72;74.60;93576.02;1790139;80;21084;-56
2021/01/23 02:38:06;;;;;;;72.30;40.10;;;;;;;4.79;74.56;93562.16;1790163;80;21181;-56
2021/01/23 02:40:35;;;;;;;88.90;48.95;;;;;;;4.86;74.17;93566.62;1790164;80;21215;-56
2021/01/23 02:43:04;;;;;;;99.22;53.85;;;;;;;4.89;74.18;93566.52;1790164;80;21156;-56
2021/01/23 02:45:32;;;;;;;99.97;51.88;;;;;;;4.92;74.15;93572.44;1790213;80;22098;-56
2021/01/23 02:48:01;;;;;;;111.10;56.35;;;;;;;4.96;74.27;93573.69;1790071;80;21922;-55
2021/01/23 02:50:30;;;;;;;109.57;55.65;;;;;;;5.01;74.05;93575.85;1760058;80;21057;-56
2021/01/23 02:53:08;;;;;;;124.15;61.98;;;;;;;5.03;74.17;93572.86;1790210;80;21052;-57
2021/01/23 02:55:36;;;;;;;116.93;57.03;;;;;;;5.07;74.22;93565.32;1790373;80;21560;-57
2021/01/23 02:58:05;;;;;;;114.35;56.90;;;;;;;5.05;73.96;93564.23;1790156;80;21350;-57
2021/01/23 03:00:34;;;;;;;108.40;54.80;;;;;;;4.98;73.79;93560.39;1790090;80;21132;-55
2021/01/23 03:03:02;;;;;;;118.00;58.15;;;;;;;4.87;73.98;93565.41;1790231;80;21565;-56
2021/01/23 03:05:33;;;;;;;128.50;58.85;;;;;;;4.83;74.37;93564.16;1790095;80;21080;-56
2021/01/23 03:08:01;;;;;;;104.92;52.38;;;;;;;4.82;74.14;93559.91;1790182;80;21077;-56
2021/01/23 03:10:38;;;;;;;79.17;43.23;;;;;;;4.81;74.18;93558.39;1790144;80;21361;-56
2021/01/23 03:13:06;;;;;;;126.18;65.40;;;;;;;4.76;74.25;93552.14;1790153;80;21128;-57
2021/01/23 03:15:35;;;;;;;131.45;67.47;;;;;;;4.80;74.73;93552.04;1790234;80;21556;-57
2021/01/23 03:18:04;;;;;;;118.70;62.00;;;;;;;4.86;74.75;93551.63;1790005;80;21264;-56
2021/01/23 03:20:32;;;;;;;124.92;62.88;;;;;;;4.91;74.66;93553.20;1790177;80;21187;-56
2021/01/23 03:23:01;;;;;;;92.37;48.38;;;;;;;4.94;74.48;93548.23;1790167;80;21919;-55
2021/01/23 03:25:30;;;;;;;98.12;51.68;;;;;;;4.94;74.35;93542.04;1786857;79;21088;-57
2021/01/23 03:27:58;;;;;;;90.87;46.42;;;;;;;4.88;74.02;93542.42;1764697;80;21077;-56
2021/01/23 03:30:29;;;;;;;98.22;51.37;;;;;;;4.85;74.14;93548.16;1764556;80;21117;-56
2021/01/23 03:32:58;;;;;;;139.92;76.60;;;;;;;4.80;74.17;93537.05;1764654;81;21046;-56
2021/01/23 03:35:26;;;;;;;110.88;62.08;;;;;;;4.76;74.37;93533.08;1764624;80;21458;-55
2021/01/23 03:37:55;;;;;;;119.00;67.15;;;;;;;4.73;74.33;93527.73;1764862;80;21117;-56
2021/01/23 03:40:23;;;;;;;112.57;62.25;;;;;;;4.64;74.54;93521.59;1764602;80;21137;-56
2021/01/23 03:42:52;;;;;;;115.67;62.65;;;;;;;4.59;74.53;93527.61;1764542;80;21057;-55
2021/01/23 03:45:20;;;;;;;124.35;67.92;;;;;;;4.56;74.79;93524.98;1764554;80;21077;-56
2021/01/23 03:47:49;;;;;;;124.67;69.97;;;;;;;4.53;75.02;93531.31;1764674;81;22150;-56
2021/01/23 03:50:17;;;;;;;138.82;79.87;;;;;;;4.57;75.30;93523.20;1764498;81;21089;-57
2021/01/23 03:52:46;;;;;;;113.95;63.33;;;;;;;4.64;75.46;93516.15;1764575;80;21612;-56
2021/01/23 03:55:14;;;;;;;113.52;62.25;;;;;;;4.66;75.22;93514.36;1764517;81;21164;-57
2021/01/23 03:57:42;;;;;;;92.33;51.60;;;;;;;4.64;75.08;93505.25;1764564;81;21129;-56
2021/01/23 04:00:14;;;;;;;98.60;55.67;;;;;;;4.55;75.03;93509.27;1764538;80;21204;-56
2021/01/23 04:02:42;;;;;;;103.40;54.50;;;;;;;4.47;75.35;93513.43;1764525;81;21176;-56
2021/01/23 04:05:13;;;;;;;91.00;51.92;;;;;;;4.47;75.37;93513.43;1764526;81;21093;-56
2021/01/23 04:07:41;;;;;;;94.72;56.20;;;;;;;4.50;75.19;93512.55;1764541;81;21481;-57
2021/01/23 04:10:13;;;;;;;104.40;57.48;;;;;;;4.50;75.15;93507.69;1764538;80;21129;-56
2021/01/23 04:12:42;;;;;;;99.28;55.88;;;;;;;4.47;75.18;93507.98;1764568;81;21372;-55
2021/01/23 04:15:12;;;;;;;123.75;62.65;;;;;;;4.46;75.31;93507.80;1764415;80;21081;-57
2021/01/23 04:17:41;;;;;;;122.17;62.00;;;;;;;4.45;75.17;93509.00;1764576;80;21064;-57
2021/01/23 04:20:11;;;;;;;101.55;52.73;;;;;;;4.36;75.39;93503.47;1764530;80;21069;-56
2021/01/23 04:22:39;;;;;;;102.53;53.98;;;;;;;4.31;75.44;93494.50;1764618;81;21141;-56
2021/01/23 04:25:09;;;;;;;89.35;50.83;;;;;;;4.23;75.62;93496.52;1764556;81;21471;-56
2021/01/23 04:27:37;;;;;;;100.67;56.83;;;;;;;4.18;75.83;93499.19;1785865;79;21541;-55
2021/01/23 04:30:07;;;;;;;95.65;53.42;;;;;;;4.13;75.85;93494.30;1790049;80;21145;-55
2021/01/23 04:32:36;;;;;;;95.35;53.90;;;;;;;4.10;76.35;93495.17;1790206;80;21140;-55
2021/01/23 04:35:07;;;;;;;95.87;53.48;;;;;;;4.12;76.27;93496.08;1790118;80;21147;-55
2021/01/23 04:37:38;;;;;;;102.95;57.00;;;;;;;4.07;76.20;93500.09;1790186;80;22107;-56
2021/01/23 04:40:09;;;;;;;109.57;62.65;;;;;;;4.03;76.20;93504.15;1790102;80;21604;-56
2021/01/23 04:42:43;;;;;;;110.08;60.48;;;;;;;4.01;76.41;93507.29;1790089;80;21140;-56
2021/01/23 04:45:12;;;;;;;111.47;60.90;;;;;;;4.03;76.47;93504.15;1790038;80;21093;-56
2021/01/23 04:47:41;;;;;;;111.28;61.13;;;;;;;4.05;76.42;93502.50;1790157;80;21143;-55
2021/01/23 04:50:11;;;;;;;99.92;57.40;;;;;;;4.03;76.46;93510.33;1790077;80;21207;-56
2021/01/23 04:52:40;;;;;;;98.27;57.00;;;;;;;4.03;76.65;93506.25;1790446;80;21442;-57
2021/01/23 04:55:10;;;;;;;93.92;53.70;;;;;;;4.06;76.57;93508.72;1790394;80;21096;-56
2021/01/23 04:57:40;;;;;;;92.25;52.10;;;;;;;4.07;76.68;93508.27;1790053;80;21069;-56
2021/01/23 05:00:10;;;;;;;88.55;53.35;;;;;;;4.10;76.56;93508.78;1760485;80;21203;-57
2021/01/23 05:02:39;;;;;;;91.70;53.92;;;;;;;4.06;76.22;93501.30;1790190;80;22115;-56
2021/01/23 05:05:08;;;;;;;91.35;53.45;;;;;;;3.97;76.45;93497.70;1789988;80;21588;-56
2021/01/23 05:07:40;;;;;;;105.95;59.77;;;;;;;3.95;76.74;93497.38;1790048;80;21136;-56
2021/01/23 05:10:20;;;;;;;97.30;55.63;;;;;;;4.02;76.85;93512.89;1790574;80;21097;-57
2021/01/23 05:12:53;;;;;;;95.65;53.75;;;;;;;4.07;76.59;93504.18;1790490;80;21076;-57
2021/01/23 05:15:32;;;;;;;74.58;45.70;;;;;;;4.06;76.39;93497.22;1790525;80;23689;-57
2021/01/23 05:18:05;;;;;;;82.78;46.20;;;;;;;4.02;76.53;93505.34;1790119;80;21504;-56
2021/01/23 05:20:51;;;;;;;88.15;47.83;;;;;;;4.03;76.54;93516.39;1790213;80;21164;-56
2021/01/23 05:23:25;;;;;;;78.17;44.73;;;;;;;4.01;76.56;93508.66;1790072;80;21061;-55
2021/01/23 05:26:01;;;;;;;77.05;45.58;;;;;;;3.97;76.34;93509.95;1789980;79;21140;-54
2021/01/23 05:28:36;;;;;;;89.35;48.02;;;;;;;3.89;76.40;93510.02;1764532;81;21263;-56
2021/01/23 05:31:07;;;;;;;69.35;42.05;;;;;;;3.82;76.64;93514.28;1764432;80;21141;-56
2021/01/23 05:33:36;;;;;;;103.67;58.42;;;;;;;3.80;76.66;93512.02;1764598;81;21132;-56
2021/01/23 05:36:11;;;;;;;100.72;56.25;;;;;;;3.72;76.68;93510.69;1764486;80;21156;-55
2021/01/23 05:38:43;;;;;;;93.80;53.30;;;;;;;3.69;76.73;93510.81;1764610;81;21476;-57
2021/01/23 05:41:13;;;;;;;95.53;50.92;;;;;;;3.68;76.99;93518.19;1764671;80;21501;-57
2021/01/23 05:43:50;;;;;;;130.70;75.15;;;;;;;3.73;76.93;93514.92;1764417;80;21072;-56
2021/01/23 05:46:30;;;;;;;138.68;78.65;;;;;;;3.70;76.87;93513.69;1764550;81;21073;-55
2021/01/23 05:48:59;;;;;;;108.87;61.88;;;;;;;3.65;76.87;93521.78;1764815;80;21509;-56
2021/01/23 05:51:28;;;;;;;98.87;58.98;;;;;;;3.60;77.04;93509.31;1764672;81;21113;-56
2021/01/23 05:53:56;;;;;;;117.45;65.78;;;;;;;3.57;77.29;93515.63;1764650;80;21354;-56
2021/01/23 05:56:24;;;;;;;116.93;64.25;;;;;;;3.57;77.43;93503.38;1764551;80;21165;-57
2021/01/23 05:58:53;;;;;;;113.00;65.28;;;;;;;3.62;77.55;93513.72;1764725;81;21604;-56
2021/01/23 06:01:21;;;;;;;125.55;68.83;;;;;;;3.68;77.36;93516.83;1764647;81;21089;-57
2021/01/23 06:03:58;;;;;;;117.08;69.20;;;;;;;3.68;77.43;93519.55;1764621;80;21508;-57
2021/01/23 06:06:25;;;;;;;142.00;79.65;;;;;;;3.70;77.23;93517.16;1764712;81;22151;-56
2021/01/23 06:08:54;;;;;;;119.05;68.02;;;;;;;3.65;77.19;93523.14;1764550;80;21211;-56
2021/01/23 06:11:32;;;;;;;109.07;61.85;;;;;;;3.64;77.39;93510.74;1764604;80;21160;-56
2021/01/23 06:14:01;;;;;;;108.90;64.60;;;;;;;3.63;77.27;93501.06;1764618;81;21060;-55
2021/01/23 06:16:37;;;;;;;167.85;91.15;;;;;;;3.61;77.25;93511.61;1764650;81;21103;-56
2021/01/23 06:19:11;;;;;;;192.25;105.92;;;;;;;3.57;77.39;93503.38;1764726;81;22123;-57
2021/01/23 06:21:48;;;;;;;154.57;87.12;;;;;;;3.54;77.51;93506.97;1764671;80;21077;-57
2021/01/23 06:24:17;;;;;;;165.92;91.67;;;;;;;3.51;77.74;93501.79;1764713;81;21553;-57
2021/01/23 06:26:57;;;;;;;133.27;80.97;;;;;;;3.50;77.67;93507.06;1771593;80;21073;-56
2021/01/23 06:29:37;;;;;;;206.47;107.67;;;;;;;3.48;77.86;93505.38;1796252;80;21568;-57
2021/01/23 06:32:23;;;;;;;164.80;89.83;;;;;;;3.52;78.02;93508.75;1796071;80;21374;-58
2021/01/23 06:34:54;;;;;;;135.97;75.92;;;;;;;3.60;77.95;93504.65;1795980;80;21135;-58
2021/01/23 06:37:37;;;;;;;205.35;111.10;;;;;;;3.64;77.87;93495.79;1796137;80;21106;-57
2021/01/23 06:40:27;;;;;;;159.82;89.07;;;;;;;3.66;77.83;93498.83;1796011;80;21156;-57
2021/01/23 06:42:56;;;;;;;141.43;84.30;;;;;;;3.70;77.88;93491.33;1796181;80;21115;-57
2021/01/23 06:45:33;;;;;;;126.82;78.83;;;;;;;3.72;77.68;93489.55;1795980;80;21516;-57
2021/01/23 06:48:01;;;;;;;136.88;80.20;;;;;;;3.74;77.83;93493.36;1795978;80;21084;-57
2021/01/23 06:50:39;;;;;;;148.10;84.58;;;;;;;3.82;77.70;93489.22;1795996;80;21076;-55
2021/01/23 06:53:17;;;;;;;147.40;85.07;;;;;;;3.88;77.46;93482.03;1796138;80;21476;-57
2021/01/23 06:55:51;;;;;;;152.12;85.77;;;;;;;3.92;77.58;93486.80;1791715;80;21120;-56
2021/01/23 06:58:25;;;;;;;151.78;86.82;;;;;;;4.01;77.48;93490.97;1796003;80;21198;-57
2021/01/23 07:00:57;;;;;;;112.12;65.28;;;;;;;4.08;77.30;93498.90;1795991;80;21132;-56
2021/01/23 07:03:31;;;;;;;172.55;98.40;;;;;;;4.12;76.89;93487.91;1796135;80;21139;-56
2021/01/23 07:06:01;;;;;;;164.88;94.75;;;;;;;4.04;76.73;93486.63;1796028;80;21080;-60
2021/01/23 07:08:37;;;;;;;178.38;97.53;;;;;;;4.00;76.74;93479.92;1796312;80;21476;-58
2021/01/23 07:11:18;;;;;;;156.07;95.40;;;;;;;4.04;76.91;93481.93;1796086;80;21192;-60
2021/01/23 07:14:06;;;;;;;212.95;117.77;;;;;;;4.09;76.77;93485.45;1795949;80;21136;-57
2021/01/23 07:16:39;;;;;;;261.95;147.93;;;;;;;4.08;76.43;93488.63;1796091;80;21533;-56
2021/01/23 07:19:08;;;;;;;258.60;140.60;;;;;;;3.99;76.54;93485.79;1796150;80;21080;-57
2021/01/23 07:21:40;;;;;;;210.70;122.05;;;;;;;3.99;76.67;93486.56;1796001;80;21116;-57
2021/01/23 07:24:09;;;;;;;293.23;159.05;;;;;;;4.03;76.55;93494.02;1796025;80;21203;-56
2021/01/23 07:26:40;;;;;;;314.38;174.53;;;;;;;4.04;76.45;93487.38;1768202;80;21077;-58
2021/01/23 07:29:09;;;;;;;285.32;162.25;;;;;;;4.04;76.34;93498.87;1796038;80;21096;-57
2021/01/23 07:31:37;;;;;;;318.17;168.17;;;;;;;4.00;76.59;93493.53;1796087;80;21596;-57
2021/01/23 07:34:11;;;;;;;301.00;168.00;;;;;;;4.02;76.74;93499.29;1795947;80;21110;-57
2021/01/23 07:36:43;;;;;;;309.52;158.65;;;;;;;4.06;76.66;93490.41;1796015;80;21508;-57
2021/01/23 07:39:15;;;;;;;394.25;188.25;;;;;;;4.09;76.64;93497.70;1795892;80;21092;-57
2021/01/23 07:41:55;;;;;;;364.27;185.82;;;;;;;4.12;76.88;93502.30;1795973;80;21167;-57
2021/01/23 07:44:26;;;;;;;313.60;158.03;;;;;;;4.24;77.00;93498.78;1796047;80;21548;-57
2021/01/23 07:46:56;;;;;;;330.15;165.82;;;;;;;4.35;76.57;93491.06;1795933;80;21112;-56
2021/01/23 07:49:26;;;;;;;320.55;171.57;;;;;;;4.34;76.42;93486.81;1795936;80;21370;-59
2021/01/23 07:52:06;;;;;;;331.35;174.90;;;;;;;4.30;76.38;93491.61;1795856;80;21144;-56
2021/01/23 07:54:50;;;;;;;319.65;172.22;;;;;;;4.26;76.48;93492.30;1792863;80;21140;-57
2021/01/23 07:57:17;;;;;;;;;;;;;;;4.30;76.76;93484.81;1798677;80;21513;-58
2021/01/23 07:59:48;;;;;;;307.37;162.62;;;;;;;4.38;76.74;93498.95;1796006;80;20217;-57
2021/01/23 08:02:18;;;;;;;283.25;156.10;;;;;;;4.43;76.71;93486.15;1796059;80;21261;-57
2021/01/23 08:04:53;;;;;;;269.60;148.50;;;;;;;4.50;76.67;93483.95;1795993;80;21568;-58
2021/01/23 08:07:24;;;;;;;258.82;143.62;;;;;;;4.61;76.65;93485.71;1795901;80;21064;-57
2021/01/23 08:10:17;;;;;;;276.98;158.87;;;;;;;4.71;76.68;93487.92;1796025;80;21501;-57
2021/01/23 08:12:56;;;;;;;;;;;;;;;4.81;76.54;93493.01;1798613;80;21124;-57
2021/01/23 08:15:28;;;;;;;223.07;127.85;;;;;;;4.83;76.16;93476.98;1795961;80;22270;-57
2021/01/23 08:17:57;;;;;;;176.75;103.32;;;;;;;4.82;76.33;93487.72;1795790;80;21132;-57
2021/01/23 08:20:38;;;;;;;169.50;99.67;;;;;;;4.88;76.58;93491.42;1788004;80;21499;-57
2021/01/23 08:23:12;;;;;;;262.25;155.07;;;;;;;4.99;76.49;93487.72;1788086;80;21166;-57
2021/01/23 08:25:50;;;;;;;254.38;148.97;;;;;;;5.08;75.99;93483.72;1787908;80;22360;-58
2021/01/23 08:28:40;;;;;;;304.52;176.22;;;;;;;5.10;75.70;93485.40;1788060;80;22164;-57
2021/01/23 08:31:21;;;;;;;302.55;176.93;;;;;;;5.10;75.80;93482.67;1787870;80;21098;-56
2021/01/23 08:33:56;;;;;;;297.65;166.90;;;;;;;5.15;75.55;93484.83;1788042;80;21068;-57
2021/01/23 08:36:28;;;;;;;280.15;158.32;;;;;;;5.22;75.38;93492.77;1788097;80;21166;-58
2021/01/23 08:39:02;;;;;;;266.75;149.32;;;;;;;5.20;75.25;93482.14;1788165;80;21570;-57
2021/01/23 08:41:36;;;;;;;238.18;141.22;;;;;;;5.23;75.24;93483.39;1788334;80;22112;-56
2021/01/23 08:44:06;;;;;;;250.93;147.15;;;;;;;5.27;75.20;93495.67;1788101;80;21130;-57
2021/01/23 08:46:35;;;;;;;259.57;153.25;;;;;;;5.31;75.21;93487.38;1788053;80;21589;-57
2021/01/23 08:49:04;;;;;;;239.68;143.60;;;;;;;5.39;75.17;93486.67;1788028;80;21159;-61
2021/01/23 08:51:33;;;;;;;224.35;137.15;;;;;;;5.52;75.13;93475.69;1787996;80;21079;-62
2021/01/23 08:54:02;;;;;;;232.15;142.43;;;;;;;5.67;75.07;93472.02;1788055;80;21364;-58
2021/01/23 08:56:31;;;;;;;205.05;128.72;;;;;;;5.78;74.85;93472.98;1788157;80;21078;-57
2021/01/23 08:58:59;;;;;;;203.80;121.42;;;;;;;5.94;74.69;93471.42;1788077;80;21082;-56
2021/01/23 09:01:28;;;;;;;172.68;106.05;;;;;;;6.13;74.59;93461.47;1788081;80;21111;-57
2021/01/23 09:03:57;;;;;;;153.23;94.13;;;;;;;6.33;73.76;93458.37;1788108;80;21198;-58
2021/01/23 09:06:25;;;;;;;149.12;91.05;;;;;;;6.43;73.22;93446.23;1788064;80;21242;-57
2021/01/23 09:08:53;;;;;;;153.00;91.97;;;;;;;6.48;72.85;93447.77;1787997;80;21202;-57
2021/01/23 09:11:22;;;;;;;105.97;64.90;;;;;;;6.51;72.72;93442.02;1788067;80;21476;-57
2021/01/23 09:13:50;;;;;;;103.45;64.97;;;;;;;6.62;72.41;93435.50;1788042;80;21059;-57
2021/01/23 09:16:18;;;;;;;79.85;50.40;;;;;;;6.68;72.08;93437.80;1788085;80;21093;-58
2021/01/23 09:18:47;;;;;;;77.37;47.48;;;;;;;6.69;71.85;93434.60;1788143;80;22335;-57
2021/01/23 09:21:15;;;;;;;72.90;46.88;;;;;;;6.67;71.75;93426.72;1787981;80;21150;-58
2021/01/23 09:23:44;;;;;;;137.65;75.85;;;;;;;6.70;71.74;93425.81;1788034;80;21147;-61
2021/01/23 09:26:12;;;;;;;126.15;73.02;;;;;;;6.75;71.65;93415.64;1788072;80;21095;-59
2021/01/23 09:28:41;;;;;;;133.65;74.55;;;;;;;6.80;71.67;93409.56;1786060;80;21083;-58
2021/01/23 09:31:10;;;;;;;131.15;78.52;;;;;;;6.87;71.58;93407.91;1785033;80;23521;-59
2021/01/23 09:33:40;;;;;;;110.55;68.37;;;;;;;6.95;71.48;93403.05;1784980;80;21079;-57
2021/01/23 09:36:09;;;;;;;121.70;71.25;;;;;;;7.04;71.22;93406.39;1785190;80;21079;-58
2021/01/23 09:38:38;;;;;;;124.82;77.25;;;;;;;7.08;71.07;93406.98;1785101;80;21052;-59
2021/01/23 09:41:06;;;;;;;124.07;74.97;;;;;;;7.12;71.02;93409.10;1785123;80;21213;-58
2021/01/23 09:43:34;;;;;;;138.43;83.92;;;;;;;7.20;71.02;93411.70;1785071;80;22148;-57
2021/01/23 09:46:03;;;;;;;141.45;90.45;;;;;;;7.28;70.57;93412.89;1784850;80;21059;-57
2021/01/23 09:48:31;;;;;;;155.35;96.00;;;;;;;7.29;70.43;93414.41;1784949;80;21129;-58
2021/01/23 09:51:00;;;;;;;136.43;86.60;;;;;;;7.33;70.54;93404.06;1784950;80;21076;-57
2021/01/23 09:53:28;;;;;;;136.32;79.80;;;;;;;7.34;70.54;93404.20;1785029;80;21079;-57
2021/01/23 09:55:58;;;;;;;125.45;74.82;;;;;;;7.40;70.48;93407.09;1784871;80;21199;-57
2021/01/23 09:58:26;;;;;;;111.08;67.00;;;;;;;7.44;70.20;93400.25;1784916;80;21134;-57
2021/01/23 10:00:54;;;;;;;96.35;58.30;;;;;;;7.50;70.22;93409.34;1784964;80;21115;-57
2021/01/23 10:03:23;;;;;;;86.20;51.28;;;;;;;7.52;69.83;93404.80;1784988;80;21063;-57
2021/01/23 10:05:52;;;;;;;89.62;54.93;;;;;;;7.51;69.71;93393.08;1785356;80;21083;-62
2021/01/23 10:08:20;;;;;;;93.25;56.45;;;;;;;7.54;69.64;93394.89;1785062;80;21687;-57
2021/01/23 10:10:49;;;;;;;136.15;78.62;;;;;;;7.59;69.62;93394.29;1784910;80;21124;-57
2021/01/23 10:13:17;;;;;;;125.05;75.50;;;;;;;7.65;69.51;93393.03;1784914;80;21158;-58
2021/01/23 10:15:45;;;;;;;117.77;68.40;;;;;;;7.76;69.62;93388.61;1784985;80;21130;-57
2021/01/23 10:18:14;;;;;;;101.82;60.43;;;;;;;7.89;69.47;93386.41;1784944;80;21134;-57
2021/01/23 10:20:43;;;;;;;128.65;82.35;;;;;;;8.04;69.25;93373.57;1784934;80;21199;-57
2021/01/23 10:23:12;;;;;;;125.80;77.80;;;;;;;8.24;68.84;93368.32;1784916;80;21071;-56
2021/01/23 10:25:41;;;;;;;148.45;92.12;;;;;;;8.40;68.63;93365.19;1784983;80;21063;-57
2021/01/23 10:28:10;;;;;;;165.55;99.83;;;;;;;8.52;68.60;93366.94;1784800;80;21075;-57
2021/01/23 10:30:38;;;;;;;149.47;95.40;;;;;;;8.59;68.33;93363.84;1784988;80;21103;-56
2021/01/23 10:33:07;;;;;;;133.07;86.57;;;;;;;8.69;67.99;93364.53;1785078;80;21342;-57
2021/01/23 10:35:35;;;;;;;146.32;89.58;;;;;;;8.81;67.92;93350.57;1785082;79;21186;-57
2021/01/23 10:38:04;;;;;;;141.07;87.67;;;;;;;8.89;67.47;93349.00;1785212;80;21682;-56
2021/01/23 10:40:33;;;;;;;136.05;83.05;;;;;;;8.96;66.96;93355.48;1785110;80;21075;-55
2021/01/23 10:43:01;;;;;;;124.95;75.87;;;;;;;9.03;66.55;93355.88;1785127;80;21079;-57
2021/01/23 10:45:29;;;;;;;124.90;71.45;;;;;;;9.11;65.97;93360.38;1785142;80;21197;-57
2021/01/23 10:47:58;;;;;;;133.52;85.17;;;;;;;9.18;65.89;93358.62;1785115;80;21511;-57
2021/01/23 10:50:26;;;;;;;128.40;78.02;;;;;;;9.26;65.59;93357.05;1785224;80;21535;-56
2021/01/23 10:52:55;;;;;;;148.13;90.45;;;;;;;9.35;65.53;93341.25;1785119;80;21127;-57
2021/01/23 10:55:23;;;;;;;155.27;92.47;;;;;;;9.44;65.22;93338.39;1785107;80;21187;-58
2021/01/23 10:57:52;;;;;;;141.57;80.80;;;;;;;9.67;65.11;93345.02;1785115;80;21202;-57
2021/01/23 11:00:23;;;;;;;121.70;71.10;;;;;;;9.99;64.06;93348.90;1785008;80;21095;-57
2021/01/23 11:02:51;;;;;;;124.45;67.60;;;;;;;10.30;62.71;93342.88;1785103;80;21499;-57
2021/01/23 11:05:19;;;;;;;132.80;76.00;;;;;;;10.52;62.39;93329.45;1785099;80;21068;-57
2021/01/23 11:07:49;;;;;;;112.55;66.57;;;;;;;10.69;62.36;93326.29;1783957;80;21108;-58
2021/01/23 11:10:20;;;;;;;125.97;75.40;;;;;;;10.88;61.69;93324.90;1785064;80;21091;-57
2021/01/23 11:12:49;;;;;;;136.07;86.32;;;;;;;11.12;60.74;93315.01;1785102;80;21512;-57
2021/01/23 11:15:17;;;;;;;115.20;74.03;;;;;;;11.35;60.39;93310.63;1785116;80;21512;-59
2021/01/23 11:17:46;;;;;;;105.72;63.80;;;;;;;11.75;59.78;93303.61;1785081;79;21135;-58
2021/01/23 11:20:15;;;;;;;79.47;46.10;;;;;;;12.21;59.16;93298.69;1785116;80;21103;-57
2021/01/23 11:22:44;;;;;;;73.72;46.55;;;;;;;12.68;57.89;93296.57;1785179;80;22272;-59
2021/01/23 11:25:16;;;;;;;74.53;46.00;;;;;;;13.21;56.46;93285.45;1785071;80;21075;-57
2021/01/23 11:27:45;;;;;;;65.42;40.48;;;;;;;13.73;55.22;93281.00;1785087;80;21245;-57
2021/01/23 11:30:16;;;;;;;58.90;37.38;;;;;;;14.15;53.54;93271.08;1783422;80;21219;-57
2021/01/23 11:32:45;;;;;;;43.85;27.62;;;;;;;14.51;52.26;93275.67;1783450;80;21130;-57
2021/01/23 11:35:13;;;;;;;38.60;24.35;;;;;;;14.89;51.15;93272.02;1783455;80;21199;-57
2021/01/23 11:37:41;;;;;;;30.75;16.70;;;;;;;15.24;49.95;93263.78;1783558;80;21076;-58